sensor_id;sensor_type;location;lat;lon;timestamp;pressure;altitude;pressure_sealevel;temperature;humidity
62011;BME280;47967;51.756;10.174;2023-02-12T05:02:03;101792.81;;;7.48;86.91
62011;BME280;47967;51.756;10.174;2023-02-12T05:06:07;101797.13;;;7.60;86.37
62011;BME280;47967;51.756;10.174;2023-02-12T05:10:10;101797.28;;;7.59;85.76
62011;BME280;47967;51.756;10.174;2023-02-12T05:14:14;101795.63;;;7.67;85.25
62011;BME280;47967;51.756;10.174;2023-02-12T05:18:18;101797.19;;;7.70;85.19
62011;BME280;47967;51.756;10.174;2023-02-12T05:22:20;101802.78;;;7.57;84.88
62011;BME280;47967;51.756;10.174;2023-02-12T05:26:23;101798.38;;;7.56;84.66
62011;BME280;47967;51.756;10.174;2023-02-12T05:30:25;101803.94;;;7.43;84.66
62011;BME280;47967;51.756;10.174;2023-02-12T05:34:29;101804.50;;;7.26;85.23
62011;BME280;47967;51.756;10.174;2023-02-12T05:38:32;101806.66;;;7.32;85.83
62011;BME280;47967;51.756;10.174;2023-02-12T05:42:35;101810.22;;;7.32;86.05
62011;BME280;47967;51.756;10.174;2023-02-12T05:46:37;101806.38;;;7.46;86.32
62011;BME280;47967;51.756;10.174;2023-02-12T05:50:41;101807.03;;;7.60;86.01
62011;BME280;47967;51.756;10.174;2023-02-12T05:54:44;101803.91;;;7.55;85.28
62011;BME280;47967;51.756;10.174;2023-02-12T05:58:50;101811.16;;;7.64;85.31
62011;BME280;47967;51.756;10.174;2023-02-12T06:02:53;101813.22;;;7.72;85.28
62011;BME280;47967;51.756;10.174;2023-02-12T06:06:59;101810.78;;;7.68;84.69
62011;BME280;47967;51.756;10.174;2023-02-12T06:11:02;101806.19;;;7.59;84.15
62011;BME280;47967;51.756;10.174;2023-02-12T06:15:06;101810.56;;;7.60;83.92
62011;BME280;47967;51.756;10.174;2023-02-12T06:19:09;101814.88;;;7.51;83.50
62011;BME280;47967;51.756;10.174;2023-02-12T06:23:13;101824.19;;;7.47;83.21
62011;BME280;47967;51.756;10.174;2023-02-12T06:27:15;101824.91;;;7.49;83.27
62011;BME280;47967;51.756;10.174;2023-02-12T06:31:19;101825.03;;;7.48;83.33
62011;BME280;47967;51.756;10.174;2023-02-12T06:35:23;101826.16;;;7.45;83.35
62011;BME280;47967;51.756;10.174;2023-02-12T06:39:26;101832.03;;;7.39;83.61
62011;BME280;47967;51.756;10.174;2023-02-12T06:43:29;101833.28;;;7.35;84.33
62011;BME280;47967;51.756;10.174;2023-02-12T06:47:32;101843.00;;;7.36;84.77
62011;BME280;47967;51.756;10.174;2023-02-12T06:51:34;101853.97;;;7.44;84.75
62011;BME280;47967;51.756;10.174;2023-02-12T06:55:40;101850.44;;;7.44;84.55
62011;BME280;47967;51.756;10.174;2023-02-12T06:59:42;101852.69;;;7.39;84.25
62011;BME280;47967;51.756;10.174;2023-02-12T07:03:47;101856.94;;;7.41;84.38
62011;BME280;47967;51.756;10.174;2023-02-12T07:07:50;101865.44;;;7.46;84.30
62011;BME280;47967;51.756;10.174;2023-02-12T07:11:54;101866.38;;;7.57;84.09
62011;BME280;47967;51.756;10.174;2023-02-12T07:15:57;101865.69;;;7.55;83.98
62011;BME280;47967;51.756;10.174;2023-02-12T07:20:00;101871.84;;;7.66;84.04
62011;BME280;47967;51.756;10.174;2023-02-12T07:24:02;101875.13;;;7.70;83.91
62011;BME280;47967;51.756;10.174;2023-02-12T07:28:06;101875.00;;;7.72;83.53
62011;BME280;47967;51.756;10.174;2023-02-12T07:32:09;101883.25;;;7.80;83.26
62011;BME280;47967;51.756;10.174;2023-02-12T07:36:13;101878.00;;;7.78;83.08
62011;BME280;47967;51.756;10.174;2023-02-12T07:40:17;101887.75;;;7.58;83.29
62011;BME280;47967;51.756;10.174;2023-02-12T07:44:20;101891.44;;;7.57;84.45
62011;BME280;47967;51.756;10.174;2023-02-12T07:48:23;101891.38;;;7.68;84.79
62011;BME280;47967;51.756;10.174;2023-02-12T07:52:26;101889.41;;;7.71;85.04
62011;BME280;47967;51.756;10.174;2023-02-12T07:56:30;101883.97;;;7.82;85.37
62011;BME280;47967;51.756;10.174;2023-02-12T08:00:36;101891.81;;;7.85;85.95
62011;BME280;47967;51.756;10.174;2023-02-12T08:04:39;101892.47;;;7.98;86.68
62011;BME280;47967;51.756;10.174;2023-02-12T08:08:42;101895.53;;;8.15;87.51
62011;BME280;47967;51.756;10.174;2023-02-12T08:12:45;101886.22;;;8.40;86.85
62011;BME280;47967;51.756;10.174;2023-02-12T08:16:49;101895.72;;;8.65;85.06
62011;BME280;47967;51.756;10.174;2023-02-12T08:20:52;101894.84;;;8.65;83.62
62011;BME280;47967;51.756;10.174;2023-02-12T08:24:55;101896.88;;;8.73;83.28
62011;BME280;47967;51.756;10.174;2023-02-12T08:28:59;101909.13;;;8.87;83.05
62011;BME280;47967;51.756;10.174;2023-02-12T08:33:04;101903.75;;;8.96;82.65
62011;BME280;47967;51.756;10.174;2023-02-12T08:37:06;101907.91;;;9.10;82.76
62011;BME280;47967;51.756;10.174;2023-02-12T08:41:11;101912.63;;;9.18;82.33
62011;BME280;47967;51.756;10.174;2023-02-12T08:45:14;101919.41;;;9.12;81.53
62011;BME280;47967;51.756;10.174;2023-02-12T08:49:19;101922.53;;;9.18;82.07
62011;BME280;47967;51.756;10.174;2023-02-12T08:53:22;101935.03;;;9.28;81.85
62011;BME280;47967;51.756;10.174;2023-02-12T08:57:25;101931.09;;;9.33;81.85
62011;BME280;47967;51.756;10.174;2023-02-12T09:01:30;101936.91;;;9.38;81.82
62011;BME280;47967;51.756;10.174;2023-02-12T09:05:38;101940.19;;;9.41;82.20
62011;BME280;47967;51.756;10.174;2023-02-12T09:09:41;101938.06;;;9.45;82.11
62011;BME280;47967;51.756;10.174;2023-02-12T09:13:45;101941.59;;;9.45;81.69
62011;BME280;47967;51.756;10.174;2023-02-12T09:17:48;101935.38;;;9.55;81.84
62011;BME280;47967;51.756;10.174;2023-02-12T09:21:53;101951.97;;;9.50;81.65
62011;BME280;47967;51.756;10.174;2023-02-12T09:25:57;101950.41;;;9.48;81.92
62011;BME280;47967;51.756;10.174;2023-02-12T09:30:00;101944.44;;;9.54;82.42
62011;BME280;47967;51.756;10.174;2023-02-12T09:34:04;101959.53;;;9.86;81.99
62011;BME280;47967;51.756;10.174;2023-02-12T09:38:08;101960.41;;;9.96;81.38
62011;BME280;47967;51.756;10.174;2023-02-12T09:42:20;101958.94;;;10.02;80.96
62011;BME280;47967;51.756;10.174;2023-02-12T09:46:28;101955.25;;;9.83;80.37
62011;BME280;47967;51.756;10.174;2023-02-12T09:50:38;101960.81;;;9.82;80.96
62011;BME280;47967;51.756;10.174;2023-02-12T09:54:47;101970.03;;;9.79;80.96
62011;BME280;47967;51.756;10.174;2023-02-12T09:58:51;101970.59;;;9.63;80.91
62011;BME280;47967;51.756;10.174;2023-02-12T10:02:59;101975.53;;;9.77;80.98
62011;BME280;47967;51.756;10.174;2023-02-12T10:07:12;101974.41;;;9.80;80.95
62011;BME280;47967;51.756;10.174;2023-02-12T10:11:35;101968.91;;;10.11;80.16
62011;BME280;47967;51.756;10.174;2023-02-12T10:15:46;101977.72;;;10.43;79.09
62011;BME280;47967;51.756;10.174;2023-02-12T10:20:08;101973.28;;;10.51;78.24
62011;BME280;47967;51.756;10.174;2023-02-12T10:24:28;101978.50;;;10.63;78.03
62011;BME280;47967;51.756;10.174;2023-02-12T10:28:38;101967.94;;;10.89;77.79
62011;BME280;47967;51.756;10.174;2023-02-12T10:32:42;101973.28;;;10.99;76.86
62011;BME280;47967;51.756;10.174;2023-02-12T10:36:48;101968.53;;;11.11;76.34
62011;BME280;47967;51.756;10.174;2023-02-12T10:40:53;101965.94;;;11.19;75.70
62011;BME280;47967;51.756;10.174;2023-02-12T10:44:59;101974.41;;;11.06;76.07
62011;BME280;47967;51.756;10.174;2023-02-12T10:49:02;101974.88;;;10.92;75.74
62011;BME280;47967;51.756;10.174;2023-02-12T10:53:04;101978.59;;;10.91;75.66
62011;BME280;47967;51.756;10.174;2023-02-12T10:57:11;101971.06;;;10.84;75.55
62011;BME280;47967;51.756;10.174;2023-02-12T11:01:20;101972.00;;;11.03;75.77
62011;BME280;47967;51.756;10.174;2023-02-12T11:05:25;101969.09;;;11.42;75.14
62011;BME280;47967;51.756;10.174;2023-02-12T11:09:33;101974.66;;;11.41;73.67
62011;BME280;47967;51.756;10.174;2023-02-12T11:13:38;101968.34;;;11.68;73.17
62011;BME280;47967;51.756;10.174;2023-02-12T11:17:45;101966.00;;;12.01;72.80
62011;BME280;47967;51.756;10.174;2023-02-12T11:22:05;101949.66;;;12.29;71.74
62011;BME280;47967;51.756;10.174;2023-02-12T11:26:23;101944.13;;;12.12;71.07
62011;BME280;47967;51.756;10.174;2023-02-12T11:30:26;101944.50;;;11.81;71.37
62011;BME280;47967;51.756;10.174;2023-02-12T11:34:30;101940.47;;;11.67;71.60
62011;BME280;47967;51.756;10.174;2023-02-12T11:38:35;101942.28;;;11.77;71.98
62011;BME280;47967;51.756;10.174;2023-02-12T11:42:38;101948.88;;;11.46;72.50
62011;BME280;47967;51.756;10.174;2023-02-12T11:46:46;101945.03;;;11.67;72.56
62011;BME280;47967;51.756;10.174;2023-02-12T11:50:52;101943.03;;;12.23;71.16
62011;BME280;47967;51.756;10.174;2023-02-12T11:54:58;101937.38;;;12.16;70.45
62011;BME280;47967;51.756;10.174;2023-02-12T11:59:11;101935.31;;;12.10;70.66
62011;BME280;47967;51.756;10.174;2023-02-12T12:03:23;101937.94;;;12.02;71.42
62011;BME280;47967;51.756;10.174;2023-02-12T12:07:31;101939.81;;;12.46;70.99
62011;BME280;47967;51.756;10.174;2023-02-12T12:11:45;101938.47;;;12.24;71.01
62011;BME280;47967;51.756;10.174;2023-02-12T12:15:52;101937.97;;;12.46;69.93
62011;BME280;47967;51.756;10.174;2023-02-12T12:20:20;101930.25;;;12.33;70.56
62011;BME280;47967;51.756;10.174;2023-02-12T12:24:33;101930.81;;;12.01;68.90
62011;BME280;47967;51.756;10.174;2023-02-12T12:28:44;101937.00;;;11.75;69.56
62011;BME280;47967;51.756;10.174;2023-02-12T12:32:51;101939.75;;;11.47;70.18
62011;BME280;47967;51.756;10.174;2023-02-12T12:37:06;101941.25;;;10.76;71.81
62011;BME280;47967;51.756;10.174;2023-02-12T12:41:22;101951.56;;;10.23;73.73
62011;BME280;47967;51.756;10.174;2023-02-12T12:46:00;101941.47;;;10.35;74.72
62011;BME280;47967;51.756;10.174;2023-02-12T12:50:19;101940.75;;;10.53;73.84
62011;BME280;47967;51.756;10.174;2023-02-12T12:54:34;101935.91;;;10.56;73.27
62011;BME280;47967;51.756;10.174;2023-02-12T12:58:58;101930.50;;;10.56;73.66
62011;BME280;47967;51.756;10.174;2023-02-12T13:03:29;101925.41;;;10.63;73.92
62011;BME280;47967;51.756;10.174;2023-02-12T13:07:48;101919.56;;;10.58;73.60
62011;BME280;47967;51.756;10.174;2023-02-12T13:12:17;101926.81;;;10.57;72.73
62011;BME280;47967;51.756;10.174;2023-02-12T13:16:29;101917.00;;;10.56;73.46
62011;BME280;47967;51.756;10.174;2023-02-12T13:20:41;101916.88;;;10.48;73.54
62011;BME280;47967;51.756;10.174;2023-02-12T13:24:51;101913.91;;;10.51;73.63
62011;BME280;47967;51.756;10.174;2023-02-12T13:29:00;101911.22;;;10.51;73.41
62011;BME280;47967;51.756;10.174;2023-02-12T13:33:11;101918.53;;;10.69;73.27
62011;BME280;47967;51.756;10.174;2023-02-12T13:37:20;101914.38;;;10.84;73.69
62011;BME280;47967;51.756;10.174;2023-02-12T13:41:27;101905.88;;;10.79;72.94
62011;BME280;47967;51.756;10.174;2023-02-12T13:45:38;101910.28;;;10.80;74.02
62011;BME280;47967;51.756;10.174;2023-02-12T13:49:48;101897.94;;;10.68;73.90
62011;BME280;47967;51.756;10.174;2023-02-12T13:54:03;101903.28;;;10.50;74.85
62011;BME280;47967;51.756;10.174;2023-02-12T13:58:45;101893.47;;;10.49;75.52
62011;BME280;47967;51.756;10.174;2023-02-12T14:02:50;101891.59;;;10.49;75.65
62011;BME280;47967;51.756;10.174;2023-02-12T14:06:59;101889.94;;;10.38;76.33
62011;BME280;47967;51.756;10.174;2023-02-12T14:11:04;101884.25;;;10.41;76.33
62011;BME280;47967;51.756;10.174;2023-02-12T14:15:16;101891.94;;;10.36;76.66
62011;BME280;47967;51.756;10.174;2023-02-12T14:19:53;101906.25;;;10.27;77.49
62011;BME280;47967;51.756;10.174;2023-02-12T14:28:52;101908.69;;;10.10;76.61
62011;BME280;47967;51.756;10.174;2023-02-12T14:33:24;101903.19;;;9.73;78.48
62011;BME280;47967;51.756;10.174;2023-02-12T14:37:35;101903.19;;;9.83;78.60
62011;BME280;47967;51.756;10.174;2023-02-12T14:41:40;101904.88;;;9.93;77.53
62011;BME280;47967;51.756;10.174;2023-02-12T14:45:45;101901.91;;;9.97;77.48
62011;BME280;47967;51.756;10.174;2023-02-12T14:49:51;101901.34;;;9.83;78.32
62011;BME280;47967;51.756;10.174;2023-02-12T14:53:57;101904.34;;;9.90;78.30
62011;BME280;47967;51.756;10.174;2023-02-12T14:58:04;101904.75;;;9.85;78.91
62011;BME280;47967;51.756;10.174;2023-02-12T15:02:13;101903.88;;;9.85;78.40
62011;BME280;47967;51.756;10.174;2023-02-12T15:06:20;101908.84;;;9.89;79.05
62011;BME280;47967;51.756;10.174;2023-02-12T15:10:28;101919.50;;;9.91;79.53
62011;BME280;47967;51.756;10.174;2023-02-12T15:14:34;101910.41;;;9.72;78.68
62011;BME280;47967;51.756;10.174;2023-02-12T15:18:44;101910.41;;;9.72;78.71
62011;BME280;47967;51.756;10.174;2023-02-12T15:22:49;101909.59;;;9.72;77.59
62011;BME280;47967;51.756;10.174;2023-02-12T15:26:54;101913.97;;;9.63;78.03
62011;BME280;47967;51.756;10.174;2023-02-12T15:30:59;101914.41;;;9.68;77.49
62011;BME280;47967;51.756;10.174;2023-02-12T15:35:03;101915.09;;;9.60;77.78
62011;BME280;47967;51.756;10.174;2023-02-12T15:39:07;101914.81;;;9.54;78.01
62011;BME280;47967;51.756;10.174;2023-02-12T15:43:16;101901.50;;;9.62;77.90
62011;BME280;47967;51.756;10.174;2023-02-12T15:47:20;101918.34;;;9.44;77.83
62011;BME280;47967;51.756;10.174;2023-02-12T15:51:29;101904.88;;;9.54;77.30
62011;BME280;47967;51.756;10.174;2023-02-12T15:55:38;101905.31;;;9.59;77.18
62011;BME280;47967;51.756;10.174;2023-02-12T15:59:42;101903.31;;;9.52;77.28
62011;BME280;47967;51.756;10.174;2023-02-12T16:03:53;101903.47;;;9.50;77.58
62011;BME280;47967;51.756;10.174;2023-02-12T16:07:57;101911.41;;;9.52;77.55
62011;BME280;47967;51.756;10.174;2023-02-12T16:12:02;101905.59;;;9.56;77.82
62011;BME280;47967;51.756;10.174;2023-02-12T16:16:11;101908.13;;;9.48;77.84
62011;BME280;47967;51.756;10.174;2023-02-12T16:20:23;101904.88;;;9.54;77.97
62011;BME280;47967;51.756;10.174;2023-02-12T16:24:30;101904.19;;;9.62;77.68
62011;BME280;47967;51.756;10.174;2023-02-12T16:28:33;101914.25;;;9.50;78.00
62011;BME280;47967;51.756;10.174;2023-02-12T16:32:37;101911.13;;;9.55;77.85
62011;BME280;47967;51.756;10.174;2023-02-12T16:36:45;101910.56;;;9.51;78.02
62011;BME280;47967;51.756;10.174;2023-02-12T16:41:22;101923.47;;;9.48;77.46
62011;BME280;47967;51.756;10.174;2023-02-12T16:45:36;101928.69;;;9.39;77.81
62011;BME280;47967;51.756;10.174;2023-02-12T16:49:52;101927.84;;;9.39;77.89
62011;BME280;47967;51.756;10.174;2023-02-12T16:53:57;101931.78;;;9.35;78.28
62011;BME280;47967;51.756;10.174;2023-02-12T16:58:00;101926.78;;;9.20;78.93
62011;BME280;47967;51.756;10.174;2023-02-12T17:02:05;101934.88;;;9.30;78.87
62011;BME280;47967;51.756;10.174;2023-02-12T17:06:12;101930.81;;;9.36;78.73
62011;BME280;47967;51.756;10.174;2023-02-12T17:10:17;101939.03;;;9.34;78.73
62011;BME280;47967;51.756;10.174;2023-02-12T17:14:19;101940.56;;;9.27;79.05
62011;BME280;47967;51.756;10.174;2023-02-12T17:18:23;101935.00;;;9.19;79.52
62011;BME280;47967;51.756;10.174;2023-02-12T17:22:26;101947.66;;;9.28;79.76
62011;BME280;47967;51.756;10.174;2023-02-12T17:26:30;101946.38;;;9.32;79.31
62011;BME280;47967;51.756;10.174;2023-02-12T17:30:33;101951.50;;;9.25;79.37
62011;BME280;47967;51.756;10.174;2023-02-12T17:34:37;101947.53;;;9.39;79.34
62011;BME280;47967;51.756;10.174;2023-02-12T17:38:49;101950.22;;;9.39;79.13
62011;BME280;47967;51.756;10.174;2023-02-12T17:42:53;101952.91;;;9.29;79.16
62011;BME280;47967;51.756;10.174;2023-02-12T17:46:56;101957.56;;;9.27;79.37
62011;BME280;47967;51.756;10.174;2023-02-12T17:50:59;101955.81;;;9.17;79.47
62011;BME280;47967;51.756;10.174;2023-02-12T17:55:02;101957.81;;;9.15;80.03
62011;BME280;47967;51.756;10.174;2023-02-12T17:59:06;101968.56;;;9.05;80.06
62011;BME280;47967;51.756;10.174;2023-02-12T18:03:09;101955.53;;;9.10;80.17
62011;BME280;47967;51.756;10.174;2023-02-12T18:07:12;101957.38;;;9.09;79.93
62011;BME280;47967;51.756;10.174;2023-02-12T18:11:15;101959.19;;;8.68;80.85
62011;BME280;47967;51.756;10.174;2023-02-12T18:15:20;101952.22;;;8.65;81.14
62011;BME280;47967;51.756;10.174;2023-02-12T18:19:24;101957.53;;;8.77;80.83
62011;BME280;47967;51.756;10.174;2023-02-12T18:23:27;101959.44;;;8.86;80.72
62011;BME280;47967;51.756;10.174;2023-02-12T18:27:29;101959.69;;;8.83;80.27
62011;BME280;47967;51.756;10.174;2023-02-12T18:31:33;101953.91;;;8.67;80.75
62011;BME280;47967;51.756;10.174;2023-02-12T18:35:36;101956.94;;;8.73;80.83
62011;BME280;47967;51.756;10.174;2023-02-12T18:39:41;101951.31;;;8.76;80.47
62011;BME280;47967;51.756;10.174;2023-02-12T18:43:44;101951.22;;;8.67;80.42
62011;BME280;47967;51.756;10.174;2023-02-12T18:47:48;101948.88;;;8.73;80.38
62011;BME280;47967;51.756;10.174;2023-02-12T18:51:51;101954.97;;;8.75;80.30
62011;BME280;47967;51.756;10.174;2023-02-12T18:55:53;101957.72;;;8.85;80.42
62011;BME280;47967;51.756;10.174;2023-02-12T18:59:56;101953.44;;;8.83;80.36
62011;BME280;47967;51.756;10.174;2023-02-12T19:04:02;101949.63;;;8.85;80.15
62011;BME280;47967;51.756;10.174;2023-02-12T19:08:05;101948.06;;;8.83;80.33
62011;BME280;47967;51.756;10.174;2023-02-12T19:12:07;101945.91;;;8.76;80.47
62011;BME280;47967;51.756;10.174;2023-02-12T19:16:14;101950.97;;;8.70;80.42
62011;BME280;47967;51.756;10.174;2023-02-12T19:20:18;101957.13;;;8.60;80.75
62011;BME280;47967;51.756;10.174;2023-02-12T19:24:21;101959.28;;;8.67;81.07
62011;BME280;47967;51.756;10.174;2023-02-12T19:28:23;101958.78;;;8.73;80.98
62011;BME280;47967;51.756;10.174;2023-02-12T19:32:26;101965.53;;;8.67;81.15
62011;BME280;47967;51.756;10.174;2023-02-12T19:36:31;101965.69;;;8.65;81.11
62011;BME280;47967;51.756;10.174;2023-02-12T19:40:34;101962.22;;;8.54;81.63
62011;BME280;47967;51.756;10.174;2023-02-12T19:50:24;101971.22;;;8.74;81.00
62011;BME280;47967;51.756;10.174;2023-02-12T19:54:28;101971.13;;;8.75;80.63
62011;BME280;47967;51.756;10.174;2023-02-12T19:58:30;101963.09;;;8.64;80.76
62011;BME280;47967;51.756;10.174;2023-02-12T20:02:33;101963.25;;;8.62;81.45
62011;BME280;47967;51.756;10.174;2023-02-12T20:06:36;101961.88;;;8.68;81.07
62011;BME280;47967;51.756;10.174;2023-02-12T20:10:40;101961.88;;;8.68;80.82
62011;BME280;47967;51.756;10.174;2023-02-12T20:14:43;101962.81;;;8.57;81.26
62011;BME280;47967;51.756;10.174;2023-02-12T20:18:47;101963.53;;;8.59;81.63
62011;BME280;47967;51.756;10.174;2023-02-12T20:22:50;101959.53;;;8.54;81.80
62011;BME280;47967;51.756;10.174;2023-02-12T20:26:55;101969.31;;;8.55;81.98
62011;BME280;47967;51.756;10.174;2023-02-12T20:30:57;101967.03;;;8.39;82.89
62011;BME280;47967;51.756;10.174;2023-02-12T20:35:00;101971.84;;;8.35;83.09
62011;BME280;47967;51.756;10.174;2023-02-12T20:39:04;101971.09;;;8.33;83.14
62011;BME280;47967;51.756;10.174;2023-02-12T20:43:08;101972.53;;;8.37;83.41
62011;BME280;47967;51.756;10.174;2023-02-12T20:47:11;101971.41;;;8.40;83.25
62011;BME280;47967;51.756;10.174;2023-02-12T20:51:15;101979.63;;;8.38;83.30
62011;BME280;47967;51.756;10.174;2023-02-12T20:55:18;101979.03;;;8.34;83.22
62011;BME280;47967;51.756;10.174;2023-02-12T20:59:22;101980.34;;;8.40;83.09
62011;BME280;47967;51.756;10.174;2023-02-12T21:03:25;101984.78;;;8.30;82.88
62011;BME280;47967;51.756;10.174;2023-02-12T21:07:27;101997.75;;;8.36;83.17
62011;BME280;47967;51.756;10.174;2023-02-12T21:11:30;101989.94;;;8.33;83.17
62011;BME280;47967;51.756;10.174;2023-02-12T21:15:34;101981.63;;;8.36;82.99
62011;BME280;47967;51.756;10.174;2023-02-12T21:19:37;101988.94;;;8.34;82.94
62011;BME280;47967;51.756;10.174;2023-02-12T21:23:39;101980.94;;;8.23;82.91
62011;BME280;47967;51.756;10.174;2023-02-12T21:27:42;101984.34;;;8.25;82.59
62011;BME280;47967;51.756;10.174;2023-02-12T21:31:48;101978.25;;;8.23;82.58
62011;BME280;47967;51.756;10.174;2023-02-12T21:35:51;101980.22;;;8.21;82.74
62011;BME280;47967;51.756;10.174;2023-02-12T21:39:53;101983.03;;;8.19;82.94
62011;BME280;47967;51.756;10.174;2023-02-12T21:43:57;101974.38;;;8.15;83.00
62011;BME280;47967;51.756;10.174;2023-02-12T21:48:02;101977.53;;;8.21;83.17
62011;BME280;47967;51.756;10.174;2023-02-12T21:52:04;101980.47;;;8.17;83.10
62011;BME280;47967;51.756;10.174;2023-02-12T21:56:07;101977.78;;;8.17;83.39
